createdAt,value
2023-05-07T00:03:50.175Z,12.60
2023-05-07T00:08:51.114Z,14.27
2023-05-07T00:13:51.889Z,12.85
2023-05-07T00:18:54.273Z,14.68
2023-05-07T00:23:55.003Z,13.07
2023-05-07T00:28:55.726Z,13.60
2023-05-07T00:33:57.751Z,14.35
2023-05-07T00:39:00.981Z,14.50
2023-05-07T00:44:02.614Z,14.60
2023-05-07T00:49:04.726Z,15.55
2023-05-07T00:54:05.997Z,16.25
2023-05-07T00:59:07.774Z,15.90
2023-05-07T01:04:09.847Z,16.65
2023-05-07T01:09:10.999Z,15.02
2023-05-07T01:14:12.253Z,16.15
2023-05-07T01:19:17.121Z,15.00
2023-05-07T01:24:20.169Z,13.32
2023-05-07T01:29:20.934Z,13.27
2023-05-07T01:34:24.407Z,14.00
2023-05-07T01:39:26.958Z,14.10
2023-05-07T01:44:28.925Z,13.90
2023-05-07T01:49:29.929Z,13.70
2023-05-07T01:54:31.937Z,13.80
2023-05-07T01:59:33.576Z,12.13
2023-05-07T02:04:34.281Z,12.68
2023-05-07T02:09:36.799Z,11.88
2023-05-07T02:14:37.941Z,13.48
2023-05-07T02:19:38.589Z,12.27
2023-05-07T02:24:40.695Z,12.82
2023-05-07T02:29:41.456Z,14.65
2023-05-07T02:34:42.249Z,11.65
2023-05-07T02:39:44.276Z,12.13
2023-05-07T02:44:44.939Z,11.50
2023-05-07T02:49:46.090Z,11.20
2023-05-07T02:54:49.080Z,11.20
2023-05-07T02:59:49.793Z,8.40
2023-05-07T03:04:52.036Z,8.90
2023-05-07T03:09:54.666Z,9.38
2023-05-07T03:14:55.376Z,8.35
2023-05-07T03:19:56.151Z,9.23
2023-05-07T03:24:58.348Z,9.30
2023-05-07T03:29:58.985Z,10.40
2023-05-07T03:34:59.664Z,10.43
2023-05-07T03:40:02.027Z,10.48
2023-05-07T03:45:04.833Z,10.10
2023-05-07T03:50:06.292Z,9.80
2023-05-07T03:55:09.244Z,11.30
2023-05-07T04:00:13.512Z,12.15
2023-05-07T04:05:23.158Z,12.32
2023-05-07T04:10:29.184Z,12.18
2023-05-07T04:15:31.133Z,12.23
2023-05-07T04:20:31.829Z,12.20
2023-05-07T04:25:38.650Z,11.65
2023-05-07T04:30:47.601Z,10.95
2023-05-07T04:35:48.942Z,9.98
2023-05-07T04:40:51.454Z,9.75
2023-05-07T04:45:55.760Z,11.18
2023-05-07T04:50:59.177Z,10.68
2023-05-07T04:56:01.485Z,11.88
2023-05-07T05:01:09.001Z,11.15
2023-05-07T05:06:09.792Z,11.20
2023-05-07T05:11:12.486Z,11.27
2023-05-07T05:16:13.643Z,11.65
2023-05-07T05:21:15.202Z,12.20
2023-05-07T05:26:19.616Z,10.80
2023-05-07T05:31:20.409Z,11.63
2023-05-07T05:36:23.501Z,11.35
2023-05-07T05:41:28.613Z,10.88
2023-05-07T05:46:29.882Z,12.27
2023-05-07T05:51:32.435Z,12.73
2023-05-07T05:56:34.913Z,10.60
2023-05-07T06:01:36.599Z,8.95
2023-05-07T06:06:41.330Z,8.15
2023-05-07T06:11:43.962Z,7.32
2023-05-07T06:16:46.338Z,7.07
2023-05-07T06:21:47.048Z,6.88
2023-05-07T06:26:49.076Z,5.85
2023-05-07T06:31:49.860Z,4.50
2023-05-07T06:36:50.887Z,5.15
2023-05-07T06:42:06.916Z,5.78
2023-05-07T06:47:08.114Z,6.90
2023-05-07T06:52:10.398Z,6.57
2023-05-07T06:57:12.664Z,6.22
2023-05-07T07:02:13.421Z,6.50
2023-05-07T07:07:20.816Z,7.60
2023-05-07T07:12:26.978Z,8.07
2023-05-07T07:17:28.301Z,7.00
2023-05-07T07:22:30.054Z,5.75
2023-05-07T07:27:32.289Z,5.45
2023-05-07T07:32:34.487Z,4.15
2023-05-07T07:37:35.373Z,3.95
2023-05-07T07:42:37.353Z,3.47
2023-05-07T07:47:38.398Z,4.55
2023-05-07T07:52:39.327Z,3.78
2023-05-07T07:57:43.076Z,4.55
2023-05-07T08:02:44.311Z,4.47
2023-05-07T08:07:53.022Z,3.80
2023-05-07T08:12:58.672Z,3.80
2023-05-07T08:18:01.309Z,3.03
2023-05-07T08:23:02.750Z,4.20
2023-05-07T08:28:05.815Z,3.85
2023-05-07T08:33:07.420Z,3.17
2023-05-07T08:38:08.207Z,3.08
2023-05-07T08:43:14.761Z,3.50
2023-05-07T08:48:18.136Z,3.33
2023-05-07T08:53:25.555Z,4.90
2023-05-07T08:58:27.984Z,4.35
2023-05-07T09:03:28.717Z,5.20
2023-05-07T09:08:31.207Z,5.93
2023-05-07T09:13:37.135Z,5.80
2023-05-07T09:18:42.906Z,5.90
2023-05-07T09:23:46.150Z,6.10
2023-05-07T09:28:50.059Z,5.78
2023-05-07T09:33:51.204Z,5.88
2023-05-07T09:38:53.100Z,6.00
2023-05-07T09:43:57.538Z,5.50
2023-05-07T09:49:04.592Z,5.07
2023-05-07T09:54:09.056Z,5.15
2023-05-07T09:59:16.544Z,4.72
2023-05-07T10:04:19.568Z,6.40
2023-05-07T10:09:20.816Z,6.40
2023-05-07T10:14:23.963Z,5.85
2023-05-07T10:19:26.273Z,6.25
2023-05-07T10:24:34.960Z,6.63
2023-05-07T10:29:51.563Z,6.35
2023-05-07T10:34:57.256Z,5.90
2023-05-07T10:39:58.823Z,6.13
2023-05-07T10:45:15.653Z,5.47
2023-05-07T10:50:24.168Z,6.07
2023-05-07T10:55:28.701Z,5.30
2023-05-07T11:01:01.227Z,4.90
2023-05-07T11:06:12.630Z,5.03
2023-05-07T11:11:48.623Z,4.72
2023-05-07T11:17:16.516Z,4.90
2023-05-07T11:22:40.904Z,4.70
2023-05-07T11:27:50.587Z,5.00
2023-05-07T11:32:52.879Z,5.15
2023-05-07T11:38:01.337Z,4.70
2023-05-07T11:43:12.529Z,6.20
2023-05-07T11:48:15.029Z,5.93
2023-05-07T11:53:15.740Z,6.78
2023-05-07T11:58:24.011Z,4.75
2023-05-07T12:03:26.633Z,4.93
2023-05-07T12:08:28.499Z,4.90
2023-05-07T12:13:29.166Z,4.15
2023-05-07T12:18:32.251Z,4.57
2023-05-07T12:23:34.938Z,4.43
2023-05-07T12:28:39.689Z,4.43
2023-05-07T12:33:41.999Z,4.78
2023-05-07T12:38:43.177Z,4.13
2023-05-07T12:43:46.585Z,4.20
2023-05-07T12:48:51.198Z,4.18
2023-05-07T12:53:52.057Z,4.63
2023-05-07T12:58:52.671Z,3.80
2023-05-07T13:03:54.699Z,4.57
2023-05-07T13:08:56.230Z,4.40
2023-05-07T13:13:56.903Z,4.30
2023-05-07T13:18:59.294Z,4.05
2023-05-07T13:23:59.995Z,3.78
2023-05-07T13:29:00.725Z,4.00
2023-05-07T13:34:02.775Z,3.75
2023-05-07T13:39:03.525Z,3.85
2023-05-07T13:44:04.229Z,3.70
2023-05-07T13:49:06.263Z,4.13
2023-05-07T13:54:06.955Z,4.07
2023-05-07T13:59:07.680Z,4.03
2023-05-07T14:04:09.800Z,3.58
2023-05-07T14:09:13.172Z,3.28
2023-05-07T14:14:13.938Z,3.50
2023-05-07T14:19:16.046Z,2.88
2023-05-07T14:24:27.145Z,3.90
2023-05-07T14:29:36.560Z,2.83
2023-05-07T14:34:38.862Z,2.75
2023-05-07T14:39:39.604Z,2.35
2023-05-07T14:44:41.509Z,2.78
2023-05-07T14:49:43.989Z,2.60
2023-05-07T14:54:44.767Z,2.60
2023-05-07T14:59:45.531Z,3.13
2023-05-07T15:04:47.713Z,3.53
2023-05-07T15:09:48.389Z,3.00
2023-05-07T15:14:49.072Z,3.30
2023-05-07T15:19:52.021Z,3.80
2023-05-07T15:24:56.093Z,3.70
2023-05-07T15:29:56.811Z,3.85
2023-05-07T15:34:58.974Z,3.38
2023-05-07T15:39:59.666Z,4.25
2023-05-07T15:45:01.415Z,3.50
2023-05-07T15:50:03.573Z,4.63
2023-05-07T15:55:04.593Z,4.22
2023-05-07T16:00:09.742Z,4.65
2023-05-07T16:05:14.927Z,4.38
2023-05-07T16:10:15.756Z,3.80
2023-05-07T16:15:16.650Z,4.03
2023-05-07T16:20:21.835Z,4.53
2023-05-07T16:25:22.832Z,5.45
2023-05-07T16:30:23.509Z,7.57
2023-05-07T16:35:25.570Z,4.93
2023-05-07T16:40:26.629Z,5.85
2023-05-07T16:45:30.394Z,4.03
2023-05-07T16:50:32.649Z,4.13
2023-05-07T16:55:38.715Z,4.32
2023-05-07T17:05:46.164Z,5.03
2023-05-07T17:10:47.366Z,4.40
2023-05-07T17:15:48.591Z,4.15
2023-05-07T17:20:50.694Z,4.38
2023-05-07T17:25:51.483Z,3.83
2023-05-07T17:30:52.199Z,4.10
2023-05-07T17:35:55.853Z,4.45
2023-05-07T17:40:56.561Z,4.38
2023-05-07T17:45:57.238Z,4.10
2023-05-07T17:51:03.799Z,3.60
2023-05-07T17:56:07.190Z,4.32
2023-05-07T18:01:07.965Z,4.35
2023-05-07T18:06:10.310Z,3.95
2023-05-07T18:11:11.429Z,4.30
2023-05-07T18:16:12.197Z,7.22
2023-05-07T18:21:18.807Z,5.68
2023-05-07T18:26:19.554Z,5.78
2023-05-07T18:31:20.704Z,4.63
2023-05-07T18:36:24.914Z,4.97
2023-05-07T18:41:25.735Z,5.40
2023-05-07T18:46:26.581Z,5.30
2023-05-07T18:51:28.621Z,5.10
2023-05-07T18:56:29.375Z,4.97
2023-05-07T19:01:30.395Z,5.38
2023-05-07T19:06:33.673Z,6.18
2023-05-07T19:11:34.548Z,5.70
2023-05-07T19:16:35.381Z,6.30
2023-05-07T19:21:37.670Z,5.72
2023-05-07T19:26:39.696Z,5.72
2023-05-07T19:31:40.376Z,6.60
2023-05-07T19:36:42.491Z,6.28
2023-05-07T19:41:43.215Z,6.43
2023-05-07T19:46:45.789Z,6.18
2023-05-07T19:51:47.923Z,6.47
2023-05-07T19:56:48.660Z,6.13
2023-05-07T20:01:49.510Z,5.93
2023-05-07T20:06:51.553Z,7.00
2023-05-07T20:11:52.235Z,6.30
2023-05-07T20:16:52.919Z,6.25
2023-05-07T20:21:54.940Z,5.68
2023-05-07T20:26:55.652Z,5.85
2023-05-07T20:31:56.432Z,5.50
2023-05-07T20:36:58.445Z,5.38
2023-05-07T20:42:00.162Z,4.80
2023-05-07T20:47:00.960Z,4.90
2023-05-07T20:52:03.041Z,5.45
2023-05-07T20:57:03.779Z,4.50
2023-05-07T21:02:04.614Z,4.03
2023-05-07T21:07:07.063Z,3.97
2023-05-07T21:12:08.106Z,4.90
2023-05-07T21:17:09.021Z,4.68
2023-05-07T21:22:11.156Z,4.25
2023-05-07T21:27:11.864Z,4.53
2023-05-07T21:32:13.600Z,4.68
2023-05-07T21:37:15.902Z,4.18
2023-05-07T21:42:16.572Z,4.22
2023-05-07T21:47:17.340Z,4.00
2023-05-07T21:52:19.351Z,4.55
2023-05-07T21:57:20.100Z,4.57
2023-05-07T22:02:21.117Z,4.63
2023-05-07T22:07:23.120Z,4.47
2023-05-07T22:12:23.780Z,4.55
2023-05-07T22:17:24.697Z,4.40
2023-05-07T22:22:26.679Z,5.47
2023-05-07T22:27:27.428Z,4.93
2023-05-07T22:32:28.088Z,4.43
2023-05-07T22:37:30.162Z,5.07
2023-05-07T22:42:30.801Z,4.90
2023-05-07T22:47:31.856Z,5.57
2023-05-07T22:52:34.099Z,4.85
2023-05-07T22:57:34.779Z,5.13
2023-05-07T23:02:35.533Z,5.00
2023-05-07T23:07:37.616Z,5.55
2023-05-07T23:12:38.312Z,5.38
2023-05-07T23:17:39.039Z,5.32
2023-05-07T23:22:41.081Z,5.55
2023-05-07T23:27:41.761Z,4.95
2023-05-07T23:32:42.685Z,4.75
2023-05-07T23:37:44.690Z,5.53
2023-05-07T23:42:45.336Z,5.97
2023-05-07T23:47:46.282Z,5.55
2023-05-07T23:52:48.335Z,5.38
2023-05-07T23:57:48.951Z,5.35
